METAR e SPECI

METAR e SPECI

METAR é a codificação utilizada pelos aeródromos para representar as observações de vento, temperatura, visibilidade, etc. a cada hora. Já o SPECI é o mesmo tipo de codificação feita em um horário aleatório devido ao surgimento de condições de tempo adversas.

O METAR representa por meio de uma codificação o estado da atmosfera em uma dada hora através de informações de nebulosidade, temperatura, visibilidade, vento, pressão atmosférica. É de grande importância para a aviação, onde muitos pousos e decolagens ainda são feitos com base nas condições meteorológicas e na transmissão de dados meteorológicos de qualidade.

O melhor método de se entender um METAR é decodificando um, veja o exemplo a seguir:

METAR SBSP 212000Z 14009KT 8000 BKN008 OVC011 16/12 Q1024

Este caso apresenta o METAR para o aeroporto de Congonhas (codificado como SBSP), para o dia 21 as 20:00 hora Zulu (212000Z). Em seguida, os três primeiros dígitos informam a direção do vento (140° – vento vindo de sudeste), e os dois últimos a sua velocidade (9 nós). A visibilidade em metros é indicada em seguida como 8000 metros, e a cobertura de nuvens como BKN (Broken Sky), que indica uma cobertura de 5/8 a 7/8 do céu, numa altitude de aproximadamente 800 pés do solo. Há ainda a presença de nuvens a 1100 pés que cobrem o céu inteiro (OVC – Overcast). Em seguida a temperatura é informada (16°C), a temperatura do ponto de orvalho (12°C) e a pressão atmosférica (1024 hPa).

O SPECI é similar ao METAR, no entanto não é feito de hora em hora. Ele é elaborado apenas quando um fenômeno significativo, como tempestades, nevoeiros, tornados e etc. são identificados. Um exemplo se encontra a seguir:

SPECI SBSP 181945Z 33018KT 5000 TS BR BKN013 FEW030CB 23/20 Q1012

A decodificação é similar ao anterior, mas nesse caso a observação foi feita as 19:45 hora Zulu do dia 18 alertando para a presença de tempestades (TS) e a presença de névoa (BR).


Autor: Rafael Cesario de Abreu
Fonte: Federal Meteorological Handbook No. 1. Next Generation Weather Lab [Disponível em: http://weather.cod.edu/notes/metar.html]. Rede de Meteorologia do Comando da Aeronáutica [Disponível em: http://www.redemet.aer.mil.br/]

Marcações: